Latest Coastal Weather Observations for Wyndham Airport

IDD60701

Issued at 3:41 am CST Friday 19 December 2014 (issued every 10 minutes, with the page automatically refreshed every 10 minutes)

About coastal observations | Map of coastal stations | Coastal observations for NT | Marine services | Other Formats
Station Details ID: 001006 Name: WYNDHAM AERO Lat: -15.51 Lon: 128.15 Height: 3.8 m
Data from the previous 72 hours. | See also: Recent months for locations in Northern Territory
Date/Time
CST
Temp

°C
Wind Pressure Rain
since 9am
mm
Weather Cloud Vis
km
Sea
Height
m
Swell
Dir
 
Speed
knots
Gust
knots
hPa Trend Height
m
Period
s
Dir
19/03:30am 29.2 WSW 10 14 1008.3 - 0.0 - - - - - - -
19/03:00am 29.0 WSW 6 10 1008.3 - 0.0 - - - - - - -
19/02:30am 28.7 SW 9 11 1008.5 - 0.0 - - - - - - -
19/02:00am 28.9 SW 9 11 1009.0 - 0.0 - - - - - - -
19/01:30am 28.8 SSW 9 11 1009.4 - 0.0 - - - - - - -
19/01:00am 29.1 SSW 9 9 1009.6 - 0.0 - - - - - - -
19/12:30am 29.5 CALM 0 0 1009.8 - 0.0 - - - - - - -
19/12:00am 29.3 NNW 3 4 1010.2 - 0.0 - - - - - - -
 
Date/Time
CST
Temp

°C
Wind Pressure Rain
since 9am
mm
Weather Cloud Vis
km
Sea
Height
m
Swell
Dir
 
Speed
knots
Gust
knots
hPa Trend Height
m
Period
s
Dir
18/11:30pm 29.3 NW 5 6 1009.8 - 0.0 - - - - - - -
18/11:00pm 28.9 NW 4 5 1009.0 - 0.0 - - - - - - -
18/10:30pm 28.3 CALM 0 3 1009.0 - 0.0 - - - - - - -
18/10:00pm 28.3 WNW 8 11 1009.3 - 0.0 - - - - - - -
18/09:30pm 28.2 W 8 11 1009.1 - 0.0 - - - - - - -
18/09:00pm 27.3 E 3 7 1009.7 - 0.0 - - - - - - -
18/08:30pm 26.3 E 12 17 1008.4 - 0.0 - - - - - - -
18/08:07pm 27.5 ESE 19 29 1008.2 - 0.0 - - - - - - -
18/08:00pm 27.9 ESE 21 29 1007.8 - 0.0 - - - - - - -
18/07:30pm 30.3 ESE 18 24 1007.8 - 0.0 - - - - - - -
18/07:06pm 32.8 ESE 18 33 1006.7 - 0.0 - - - - - - -
18/07:03pm 33.7 ESE 16 27 1006.5 - 0.0 - - - - - - -
18/07:00pm 34.1 ESE 15 23 1006.3 - 0.0 - - - - - - -
18/06:52pm 35.9 ENE 9 22 1006.1 - 0.0 - - - - - - -
18/06:30pm 36.4 NE 8 12 1005.1 - 0.0 - - - - - - -
18/06:00pm 35.9 ENE 13 21 1004.8 - 0.0 - - - - - - -
18/05:30pm 39.9 E 6 13 1004.4 - 0.0 - - - - - - -
18/05:00pm 39.7 E 6 9 1004.2 - 0.0 - - - - - - -
18/04:30pm 39.7 SSE 5 11 1003.9 - 0.0 - - - - - - -
18/04:00pm 39.5 E 6 9 1004.0 - 0.0 - - - - - - -
18/03:30pm 39.3 SE 7 11 1004.3 - 0.0 - - - - - - -
18/03:00pm 39.6 ESE 7 11 1004.8 - 0.0 - - - - - - -
18/02:30pm 39.9 ESE 9 14 1005.4 - 0.0 - - - - - - -
18/02:00pm 39.0 ESE 9 13 1006.0 - 0.0 - - - - - - -
18/01:30pm 38.1 ESE 9 16 1006.6 - 0.0 - - - - - - -
18/01:00pm 38.3 WNW 5 9 1007.2 - 0.0 - - - - - - -
18/12:30pm 36.9 S 3 8 1007.9 - 0.0 - - - - - - -
18/12:00pm 36.9 SW 6 10 1008.3 - 0.0 - - - - - - -
18/11:30am 36.6 WSW 7 10 1008.5 - 0.0 - - - - - - -
18/11:00am 35.4 WNW 4 8 1008.7 - 0.0 - - - - - - -
18/10:30am 33.9 WNW 4 6 1009.1 - 3.4 - - - - - - -
18/10:00am 33.6 WSW 2 5 1009.3 - 3.4 - - - - - - -
18/09:30am 32.8 WSW 4 6 1009.0 - 3.4 - - - - - - -
18/09:00am 32.4 CALM 0 0 1008.8 - 3.4 - - - - - - -
18/08:30am 32.0 CALM 0 0 1008.7 - 3.4 - - - - - - -
18/08:00am 30.8 CALM 0 0 1008.2 - 3.4 - - - - - - -
18/07:30am 29.4 CALM 0 0 1007.8 - 3.4 - - - - - - -
18/07:00am 28.0 CALM 0 0 1007.4 - 3.4 - - - - - - -
18/06:30am 27.3 CALM 0 0 1006.9 - 3.4 - - - - - - -
18/06:00am 27.0 CALM 0 0 1006.6 - 3.4 - - - - - - -
18/05:30am 27.3 CALM 0 0 1006.1 - 3.4 - - - - - - -
18/05:00am 26.9 CALM 0 0 1006.2 - 3.4 - - - - - - -
18/04:30am 27.4 CALM 0 0 1005.8 - 3.4 - - - - - - -
18/04:00am 27.1 CALM 0 0 1005.8 - 3.4 - - - - - - -
18/03:30am 27.5 CALM 0 0 1005.6 - 3.4 - - - - - - -
18/03:00am 27.3 E 4 4 1005.7 - 3.4 - - - - - - -
18/02:30am 27.4 SSE 3 4 1005.5 - 3.4 - - - - - - -
18/02:00am 27.5 NNE 4 6 1005.4 - 3.4 - - - - - - -
18/01:30am 27.3 ESE 4 4 1005.4 - 3.4 - - - - - - -
18/01:00am 27.2 E 4 6 1005.6 - 3.4 - - - - - - -
18/12:30am 27.5 E 6 8 1006.1 - 3.4 - - - - - - -
18/12:00am 27.6 SE 8 9 1006.4 - 3.4 - - - - - - -
 
Date/Time
CST
Temp

°C
Wind Pressure Rain
since 9am
mm
Weather Cloud Vis
km
Sea
Height
m
Swell
Dir
 
Speed
knots
Gust
knots
hPa Trend Height
m
Period
s
Dir
17/11:30pm 27.4 ESE 7 9 1006.8 - 3.4 - - - - - - -
17/11:00pm 27.4 ESE 5 6 1007.1 - 3.4 - - - - - - -
17/10:30pm 27.4 ESE 5 6 1007.1 - 3.4 - - - - - - -
17/10:00pm 27.8 ESE 7 8 1007.0 - 3.4 - - - - - - -
17/09:30pm 28.0 ESE 8 10 1007.0 - 3.4 - - - - - - -
17/09:00pm 28.8 CALM 0 0 1006.6 - 3.4 - - - - - - -
17/08:30pm 28.8 CALM 0 0 1006.1 - 3.4 - - - - - - -
17/08:00pm 29.2 SSW 4 6 1005.9 - 3.4 - - - - - - -
17/07:30pm 29.1 SSW 9 11 1005.8 - 3.4 - - - - - - -
17/07:00pm 29.6 SW 5 7 1005.3 - 3.4 - - - - - - -
17/06:30pm 29.8 N 11 14 1005.3 - 3.4 - - - - - - -
17/06:00pm 28.4 NNE 3 6 1004.5 - 3.4 - - - - - - -
17/05:30pm 28.4 NW 10 14 1003.4 - 3.2 - - - - - - -
17/05:00pm 28.3 WNW 9 16 1003.4 - 3.0 - - - - - - -
17/04:30pm 27.7 N 6 7 1004.4 - 2.8 - - - - - - -
17/04:00pm 26.8 ENE 10 12 1004.0 - 2.8 - - - - - - -
17/03:30pm 26.2 ESE 18 23 1005.1 - 2.8 - - - - - - -
17/03:07pm 26.3 ESE 19 27 1006.3 - 2.8 - - - - - - -
17/03:00pm 27.1 E 15 22 1005.8 - 2.8 - - - - - - -
17/02:30pm 28.4 NE 19 27 1004.4 - 2.8 - - - - - - -
17/02:27pm 28.1 NE 19 27 1004.5 - 2.8 - - - - - - -
17/02:00pm 30.6 ENE 15 23 1004.0 - 2.6 - - - - - - -
17/01:40pm 32.0 NNW 10 22 1003.5 - 0.2 - - - - - - -
17/01:30pm 37.0 WSW 7 9 1003.5 - 0.0 - - - - - - -
17/01:00pm 35.1 WSW 15 21 1004.2 - 0.0 - - - - - - -
17/12:54pm 35.8 SW 11 21 1004.5 - 0.0 - - - - - - -
17/12:30pm 38.3 S 7 12 1004.9 - 0.0 - - - - - - -
17/12:00pm 38.4 WNW 6 8 1005.7 - 0.0 - - - - - - -
17/11:30am 38.4 NW 3 9 1006.2 - 0.0 - - - - - - -
17/11:00am 38.3 NNW 4 7 1006.3 - 0.0 - - - - - - -
17/10:30am 37.3 ESE 5 8 1006.7 - 0.0 - - - - - - -
17/10:00am 36.4 SSE 6 9 1006.8 - 0.0 - - - - - - -
17/09:30am 35.4 ESE 5 8 1006.7 - 0.0 - - - - - - -
17/09:00am 34.1 SE 6 8 1006.9 - 0.0 - - - - - - -
17/08:30am 33.2 S 4 6 1006.6 - 0.0 - - - - - - -
17/08:00am 32.9 NE 3 4 1006.3 - 0.0 - - - - - - -
17/07:30am 31.6 ESE 3 4 1006.0 - 0.0 - - - - - - -
17/07:00am 30.5 ENE 3 5 1005.6 - 0.0 - - - - - - -
17/06:30am 29.2 E 5 5 1004.8 - 0.0 - - - - - - -
17/06:00am 28.7 E 4 5 1004.5 - 0.0 - - - - - - -
17/05:30am 29.5 E 4 5 1004.2 - 0.0 - - - - - - -
17/05:00am 29.4 SE 1 4 1003.9 - 0.0 - - - - - - -
17/04:30am 30.1 CALM 0 0 1003.8 - 0.0 - - - - - - -
17/04:00am 30.4 CALM 0 0 1003.9 - 0.0 - - - - - - -
17/03:30am 30.3 CALM 0 0 1003.8 - 0.0 - - - - - - -
17/03:00am 30.1 CALM 0 0 1003.8 - 0.0 - - - - - - -
17/02:30am 30.8 NNW 2 3 1003.9 - 0.0 - - - - - - -
17/02:00am 31.4 W 2 3 1004.2 - 0.0 - - - - - - -
17/01:30am 31.8 WNW 4 4 1004.8 - 0.0 - - - - - - -
17/01:00am 32.0 W 4 5 1005.1 - 0.0 - - - - - - -
17/12:30am 32.0 WSW 6 6 1005.6 - 0.0 - - - - - - -
17/12:00am 32.8 NW 7 9 1005.9 - 0.0 - - - - - - -
 
Date/Time
CST
Temp

°C
Wind Pressure Rain
since 9am
mm
Weather Cloud Vis
km
Sea
Height
m
Swell
Dir
 
Speed
knots
Gust
knots
hPa Trend Height
m
Period
s
Dir
16/11:30pm 32.7 NNW 8 11 1005.8 - 0.0 - - - - - - -
16/11:00pm 32.9 N 9 12 1005.9 - 0.0 - - - - - - -
16/10:30pm 32.6 N 7 9 1005.8 - 0.0 - - - - - - -
16/10:00pm 32.7 N 9 11 1006.0 - 0.0 - - - - - - -
16/09:30pm 32.4 N 8 11 1005.7 - 0.0 - - - - - - -
16/09:00pm 32.7 N 9 13 1005.5 - 0.0 - - - - - - -
16/08:30pm 32.8 N 8 15 1004.9 - 0.0 - - - - - - -
16/08:00pm 33.5 N 15 20 1003.8 - 0.0 - - - - - - -
16/07:30pm 34.3 N 16 22 1003.3 - 0.0 - - - - - - -
16/07:00pm 35.8 N 14 19 1003.1 - 0.0 - - - - - - -
16/06:30pm 37.2 N 14 19 1002.2 - 0.0 - - - - - - -
16/06:00pm 38.6 N 12 16 1001.8 - 0.0 - - - - - - -
16/05:30pm 40.6 ENE 8 14 1001.3 - 0.0 - - - - - - -
16/05:00pm 39.8 SE 12 16 1001.5 - 0.0 - - - - - - -
16/04:30pm 39.9 ESE 10 16 1001.5 - 0.0 - - - - - - -
16/04:00pm 39.6 N 8 12 1002.4 - 0.0 - - - - - - -
16/03:30pm 40.9 NNW 9 15 1002.5 - 0.0 - - - - - - -
16/03:00pm 40.2 NNE 9 13 1003.1 - 0.0 - - - - - - -
16/02:30pm 41.3 NNW 8 11 1003.4 - 0.0 - - - - - - -
16/02:00pm 40.1 N 7 11 1004.1 - 0.0 - - - - - - -
16/01:30pm 39.8 WSW 4 8 1004.8 - 0.0 - - - - - - -
16/01:00pm 39.3 SW 5 8 1005.6 - 0.0 - - - - - - -
16/12:30pm 38.5 SW 5 9 1006.0 - 0.0 - - - - - - -
16/12:00pm 37.5 WSW 4 7 1006.6 - 0.0 - - - - - - -
16/11:30am 36.8 SSW 4 8 1007.0 - 0.0 - - - - - - -
16/11:00am 36.3 CALM 0 0 1007.4 - 0.0 - - - - - - -
16/10:30am 35.5 WSW 4 7 1007.7 - 14.2 - - - - - - -
16/10:00am 35.0 SW 2 4 1007.8 - 14.2 - - - - - - -
16/09:30am 34.0 CALM 0 0 1007.9 - 14.2 - - - - - - -
16/09:00am 33.3 CALM 0 0 1007.7 - 14.2 - - - - - - -
16/08:30am 32.7 CALM 0 0 1007.6 - 14.2 - - - - - - -
16/08:00am 32.2 CALM 0 3 1007.3 - 14.0 - - - - - - -
16/07:30am 31.0 SE 4 5 1007.1 - 14.0 - - - - - - -
16/07:00am 29.8 E 3 4 1006.7 - 14.0 - - - - - - -
16/06:30am 28.9 ENE 4 5 1006.0 - 14.0 - - - - - - -
16/06:00am 29.1 E 5 6 1005.7 - 14.0 - - - - - - -
16/05:30am 28.8 ESE 6 7 1005.3 - 14.0 - - - - - - -

Other Formats:

Comma delimited format used in spreadsheet applications
http://www.bom.gov.au/fwo/IDD60701/IDD60701.95214.axf

JavaScript Object Notation format (JSON) in row-major order
http://www.bom.gov.au/fwo/IDD60701/IDD60701.95214.json